createdAt,value
2023-07-24T00:00:00.219Z,8.68
2023-07-24T00:02:28.574Z,9.38
2023-07-24T00:04:56.600Z,9.90
2023-07-24T00:07:24.842Z,8.73
2023-07-24T00:09:53.812Z,11.45
2023-07-24T00:12:21.927Z,10.43
2023-07-24T00:14:50.204Z,10.77
2023-07-24T00:17:19.772Z,12.80
2023-07-24T00:19:48.006Z,16.48
2023-07-24T00:22:16.467Z,11.60
2023-07-24T00:24:44.893Z,12.98
2023-07-24T00:27:14.110Z,17.83
2023-07-24T00:29:42.445Z,11.80
2023-07-24T00:32:11.260Z,10.02
2023-07-24T00:34:40.750Z,12.18
2023-07-24T00:37:09.705Z,9.30
2023-07-24T00:39:37.828Z,9.23
2023-07-24T00:42:06.380Z,13.20
2023-07-24T00:44:34.472Z,12.38
2023-07-24T00:47:02.970Z,14.50
2023-07-24T00:49:31.603Z,9.43
2023-07-24T00:52:01.460Z,10.85
2023-07-24T00:54:35.060Z,9.65
2023-07-24T00:57:04.019Z,12.32
2023-07-24T00:59:32.675Z,12.15
2023-07-24T01:02:03.163Z,13.18
2023-07-24T01:04:31.516Z,14.30
2023-07-24T01:07:01.623Z,18.50
2023-07-24T01:09:30.029Z,11.93
2023-07-24T01:12:05.292Z,13.02
2023-07-24T01:14:43.533Z,12.38
2023-07-24T01:17:13.710Z,14.88
2023-07-24T01:19:48.961Z,14.45
2023-07-24T01:22:39.353Z,12.70
2023-07-24T01:25:13.587Z,16.77
2023-07-24T01:27:48.050Z,14.40
2023-07-24T01:30:19.242Z,16.75
2023-07-24T01:32:48.373Z,15.50
2023-07-24T01:35:17.142Z,12.30
2023-07-24T01:37:46.250Z,12.38
2023-07-24T01:40:15.862Z,14.18
2023-07-24T01:42:44.631Z,11.40
2023-07-24T01:45:14.229Z,13.52
2023-07-24T01:47:42.387Z,11.35
2023-07-24T01:50:11.013Z,13.93
2023-07-24T01:52:39.154Z,12.73
2023-07-24T01:55:08.262Z,12.93
2023-07-24T01:57:36.600Z,12.30
2023-07-24T02:00:05.872Z,12.93
2023-07-24T02:02:35.820Z,12.38
2023-07-24T02:05:04.193Z,12.20
2023-07-24T02:07:32.476Z,13.25
2023-07-24T02:10:00.948Z,12.05
2023-07-24T02:12:29.339Z,12.52
2023-07-24T02:14:58.540Z,11.52
2023-07-24T02:17:26.877Z,12.80
2023-07-24T02:19:56.723Z,12.15
2023-07-24T02:22:25.312Z,14.88
2023-07-24T02:24:53.825Z,13.57
2023-07-24T02:27:29.726Z,12.90
2023-07-24T02:29:58.134Z,14.52
2023-07-24T02:32:26.315Z,17.00
2023-07-24T02:34:56.449Z,10.77
2023-07-24T02:37:24.900Z,12.13
2023-07-24T02:39:54.372Z,13.30
2023-07-24T02:42:22.648Z,13.20
2023-07-24T02:44:51.398Z,14.13
2023-07-24T02:47:19.694Z,14.63
2023-07-24T02:49:48.210Z,15.38
2023-07-24T02:52:18.219Z,13.00
2023-07-24T02:54:47.382Z,14.07
2023-07-24T02:57:16.213Z,14.00
2023-07-24T02:59:44.800Z,12.80
2023-07-24T03:02:13.338Z,16.48
2023-07-24T03:04:41.813Z,15.35
2023-07-24T03:07:10.059Z,12.93
2023-07-24T03:09:39.947Z,13.20
2023-07-24T03:12:09.099Z,15.88
2023-07-24T03:14:37.573Z,13.50
2023-07-24T03:17:06.259Z,13.13
2023-07-24T03:19:35.359Z,16.17
2023-07-24T03:22:04.021Z,14.32
2023-07-24T03:24:34.000Z,16.02
2023-07-24T03:27:03.803Z,14.40
2023-07-24T03:29:32.396Z,13.43
2023-07-24T03:32:01.051Z,16.15
2023-07-24T03:34:29.173Z,18.75
2023-07-24T03:36:57.414Z,18.42
2023-07-24T03:39:26.039Z,11.35
2023-07-24T03:41:54.427Z,16.30
2023-07-24T03:44:24.364Z,16.30
2023-07-24T03:46:52.648Z,13.38
2023-07-24T03:49:21.208Z,14.93
2023-07-24T03:51:49.889Z,12.13
2023-07-24T03:54:18.182Z,13.73
2023-07-24T03:56:46.508Z,12.85
2023-07-24T03:59:14.756Z,15.52
2023-07-24T04:01:44.250Z,14.65
2023-07-24T04:04:12.750Z,12.93
2023-07-24T04:06:41.008Z,15.15
2023-07-24T04:09:09.361Z,13.07
2023-07-24T04:11:39.464Z,15.63
2023-07-24T04:14:07.775Z,13.52
2023-07-24T04:16:36.038Z,13.65
2023-07-24T04:19:06.717Z,15.38
2023-07-24T04:21:34.976Z,15.43
2023-07-24T04:24:03.411Z,13.77
2023-07-24T04:26:31.805Z,16.30
2023-07-24T04:29:00.306Z,13.68
2023-07-24T04:31:28.586Z,12.27
2023-07-24T04:33:56.930Z,13.43
2023-07-24T04:36:28.396Z,14.57
2023-07-24T04:38:57.120Z,14.90
2023-07-24T04:41:25.763Z,17.40
2023-07-24T04:43:54.411Z,13.85
2023-07-24T04:46:22.500Z,15.00
2023-07-24T04:48:51.005Z,17.13
2023-07-24T04:51:19.899Z,14.95
2023-07-24T04:53:49.625Z,17.60
2023-07-24T04:56:17.922Z,13.98
2023-07-24T04:58:46.155Z,14.20
2023-07-24T05:01:14.276Z,15.50
2023-07-24T05:03:42.746Z,12.75
2023-07-24T05:06:11.361Z,12.85
2023-07-24T05:08:39.741Z,21.00
2023-07-24T05:11:10.058Z,15.63
2023-07-24T05:13:38.272Z,11.88
2023-07-24T05:16:07.030Z,12.98
2023-07-24T05:18:35.213Z,14.63
2023-07-24T05:21:03.385Z,14.18
2023-07-24T05:23:31.483Z,11.98
2023-07-24T05:26:00.587Z,16.60
2023-07-24T05:28:30.577Z,16.75
2023-07-24T05:31:02.264Z,14.75
2023-07-24T05:33:30.563Z,12.88
2023-07-24T05:36:01.360Z,15.35
2023-07-24T05:38:30.159Z,14.90
2023-07-24T05:40:58.970Z,14.43
2023-07-24T05:43:28.830Z,12.65
2023-07-24T05:46:00.285Z,11.68
2023-07-24T05:48:29.362Z,12.13
2023-07-24T05:50:58.228Z,13.25
2023-07-24T05:53:28.634Z,12.68
2023-07-24T05:56:01.744Z,14.48
2023-07-24T05:58:30.366Z,12.27
2023-07-24T06:01:01.146Z,19.10
2023-07-24T06:03:29.720Z,15.25
2023-07-24T06:05:58.602Z,16.10
2023-07-24T06:08:27.647Z,14.45
2023-07-24T06:10:56.592Z,16.45
2023-07-24T06:13:24.955Z,15.00
2023-07-24T06:15:57.717Z,14.18
2023-07-24T06:18:28.504Z,12.32
2023-07-24T06:20:57.145Z,12.52
2023-07-24T06:23:25.908Z,13.68
2023-07-24T06:25:55.149Z,15.23
2023-07-24T06:28:24.443Z,13.05
2023-07-24T06:30:55.599Z,12.27
2023-07-24T06:33:24.832Z,17.23
2023-07-24T06:35:55.912Z,11.98
2023-07-24T06:38:26.918Z,14.10
2023-07-24T06:40:55.705Z,10.88
2023-07-24T06:43:26.121Z,10.90
2023-07-24T06:45:54.794Z,10.32
2023-07-24T06:48:23.517Z,11.20
2023-07-24T06:50:55.593Z,11.20
2023-07-24T06:53:24.348Z,12.10
2023-07-24T06:55:52.875Z,11.90
2023-07-24T06:58:21.886Z,19.80
2023-07-24T07:00:52.098Z,13.50
2023-07-24T07:03:21.121Z,12.60
2023-07-24T07:05:49.689Z,12.23
2023-07-24T07:08:19.881Z,10.30
2023-07-24T07:10:49.484Z,14.60
2023-07-24T07:13:18.004Z,12.57
2023-07-24T07:15:46.400Z,14.60
2023-07-24T07:18:16.245Z,11.60
2023-07-24T07:20:48.024Z,14.88
2023-07-24T07:23:17.173Z,16.20
2023-07-24T07:25:47.973Z,9.90
2023-07-24T07:28:16.992Z,12.95
2023-07-24T07:30:46.288Z,13.77
2023-07-24T07:33:15.686Z,15.30
2023-07-24T07:35:44.619Z,10.10
2023-07-24T07:38:13.040Z,12.45
2023-07-24T07:40:41.507Z,15.27
2023-07-24T07:43:11.699Z,9.77
2023-07-24T07:45:40.044Z,12.07
2023-07-24T07:48:08.871Z,14.70
2023-07-24T07:50:38.274Z,12.85
2023-07-24T07:53:06.992Z,13.30
2023-07-24T07:55:35.445Z,13.75
2023-07-24T07:58:03.911Z,12.48
2023-07-24T08:00:34.071Z,10.70
2023-07-24T08:03:02.518Z,12.90
2023-07-24T08:05:31.054Z,11.48
2023-07-24T08:07:59.716Z,11.63
2023-07-24T08:10:27.854Z,10.40
2023-07-24T08:12:56.800Z,13.23
2023-07-24T08:15:25.000Z,17.00
2023-07-24T08:17:55.679Z,11.70
2023-07-24T08:20:24.370Z,12.60
2023-07-24T08:22:52.896Z,11.05
2023-07-24T08:25:22.332Z,13.65
2023-07-24T08:28:04.654Z,12.80
2023-07-24T08:30:34.945Z,16.73
2023-07-24T08:33:06.446Z,12.73
2023-07-24T08:35:35.336Z,11.18
2023-07-24T08:38:03.897Z,11.93
2023-07-24T08:40:32.661Z,12.32
2023-07-24T08:43:01.146Z,11.38
2023-07-24T08:45:29.881Z,15.68
2023-07-24T08:47:59.795Z,11.38
2023-07-24T08:50:29.833Z,11.77
2023-07-24T08:52:59.388Z,16.27
2023-07-24T08:55:28.707Z,11.90
2023-07-24T08:57:57.956Z,14.00
2023-07-24T09:00:30.601Z,11.82
2023-07-24T09:02:58.997Z,13.23
2023-07-24T09:05:28.942Z,14.25
2023-07-24T09:07:57.354Z,12.20
2023-07-24T09:10:27.973Z,13.07
2023-07-24T09:12:57.772Z,12.75
2023-07-24T09:15:26.494Z,13.60
2023-07-24T09:17:55.951Z,14.00
2023-07-24T09:23:14.121Z,13.48
2023-07-24T09:25:46.044Z,13.05
2023-07-24T09:28:15.899Z,15.60
2023-07-24T09:30:53.456Z,13.93
2023-07-24T09:33:21.920Z,12.80
2023-07-24T09:36:00.123Z,13.68
2023-07-24T09:38:31.021Z,14.27
2023-07-24T09:41:00.069Z,13.73
2023-07-24T09:43:39.970Z,15.55
2023-07-24T09:46:11.800Z,13.73
2023-07-24T09:48:43.398Z,11.63
2023-07-24T09:51:31.501Z,13.60
2023-07-24T09:54:09.312Z,13.32
2023-07-24T09:56:49.068Z,13.40
2023-07-24T09:59:21.939Z,15.15
2023-07-24T10:01:51.173Z,13.10
2023-07-24T10:04:20.635Z,11.75
2023-07-24T10:06:49.572Z,15.95
2023-07-24T10:09:22.786Z,13.38
2023-07-24T10:11:50.891Z,13.75
2023-07-24T10:14:21.574Z,15.93
2023-07-24T10:16:50.885Z,14.45
2023-07-24T10:19:19.554Z,12.43
2023-07-24T10:21:48.968Z,15.05
2023-07-24T10:24:35.514Z,14.40
2023-07-24T10:27:10.141Z,12.52
2023-07-24T10:29:40.265Z,13.65
2023-07-24T10:32:21.294Z,12.70
2023-07-24T10:34:58.748Z,12.05
2023-07-24T10:37:35.314Z,14.75
2023-07-24T10:40:05.694Z,13.00
2023-07-24T10:42:35.329Z,11.07
2023-07-24T10:45:08.207Z,14.30
2023-07-24T10:47:37.368Z,14.83
2023-07-24T10:50:06.416Z,13.45
2023-07-24T10:52:35.782Z,11.95
2023-07-24T10:55:06.729Z,16.92
2023-07-24T10:57:35.885Z,13.10
2023-07-24T11:00:05.216Z,15.32
2023-07-24T11:02:33.814Z,14.77
2023-07-24T11:05:02.538Z,14.90
2023-07-24T11:07:37.310Z,19.00
2023-07-24T11:10:20.262Z,16.70
2023-07-24T11:15:18.542Z,11.93
2023-07-24T11:17:46.966Z,14.57
2023-07-24T11:20:16.665Z,15.35
2023-07-24T11:22:46.849Z,18.90
2023-07-24T11:25:16.929Z,13.80
2023-07-24T11:27:46.722Z,14.07
2023-07-24T11:30:21.400Z,13.48
2023-07-24T11:32:51.853Z,14.70
2023-07-24T11:35:23.058Z,16.75
2023-07-24T11:37:51.513Z,17.13
2023-07-24T11:40:23.111Z,16.15
2023-07-24T11:42:51.801Z,14.23
2023-07-24T11:45:20.570Z,17.40
2023-07-24T11:47:51.447Z,15.60
2023-07-24T11:50:20.224Z,15.98
2023-07-24T11:52:49.976Z,11.13
2023-07-24T11:55:19.545Z,12.40
2023-07-24T11:58:00.272Z,13.38
2023-07-24T12:00:29.233Z,11.45
2023-07-24T12:03:02.244Z,8.90
2023-07-24T12:05:30.843Z,7.38
2023-07-24T12:08:04.661Z,6.45
2023-07-24T12:10:33.468Z,7.85
2023-07-24T12:13:03.286Z,9.07
2023-07-24T12:15:32.716Z,7.97
2023-07-24T12:18:02.100Z,9.35
2023-07-24T12:20:31.536Z,6.30
2023-07-24T12:23:00.658Z,7.55
2023-07-24T12:25:29.216Z,11.07
2023-07-24T12:27:57.334Z,8.55
2023-07-24T12:30:28.419Z,6.53
2023-07-24T12:32:57.044Z,7.38
2023-07-24T12:35:25.462Z,7.05
2023-07-24T12:37:53.838Z,7.07
2023-07-24T12:40:22.839Z,9.02
2023-07-24T12:42:51.474Z,7.88
2023-07-24T12:45:20.017Z,9.27
2023-07-24T12:47:50.918Z,7.43
2023-07-24T12:50:20.196Z,9.32
2023-07-24T12:52:48.737Z,10.98
2023-07-24T12:55:17.472Z,11.02
2023-07-24T12:57:45.832Z,11.57
2023-07-24T13:00:15.221Z,9.40
2023-07-24T13:02:43.348Z,10.13
2023-07-24T13:05:13.220Z,13.00
2023-07-24T13:07:41.548Z,11.43
2023-07-24T13:10:12.526Z,10.13
2023-07-24T13:12:41.222Z,9.32
2023-07-24T13:15:09.968Z,8.25
2023-07-24T13:17:39.053Z,9.13
2023-07-24T13:20:09.277Z,8.48
2023-07-24T13:22:39.210Z,8.88
2023-07-24T13:25:09.688Z,9.25
2023-07-24T13:27:38.277Z,11.35
2023-07-24T13:30:07.292Z,9.75
2023-07-24T13:32:35.578Z,7.53
2023-07-24T13:35:03.805Z,8.88
2023-07-24T13:37:32.371Z,7.95
2023-07-24T13:40:01.893Z,10.55
2023-07-24T13:42:30.092Z,9.95
2023-07-24T13:44:58.225Z,12.55
2023-07-24T13:47:26.485Z,6.85
2023-07-24T13:49:55.001Z,8.05
2023-07-24T13:52:23.444Z,6.55
2023-07-24T13:54:51.721Z,8.85
2023-07-24T13:57:21.382Z,8.13
2023-07-24T13:59:49.724Z,8.48
2023-07-24T14:02:18.114Z,7.55
2023-07-24T14:04:46.705Z,7.82
2023-07-24T14:07:15.162Z,8.15
2023-07-24T14:09:43.839Z,6.35
2023-07-24T14:12:12.342Z,8.50
2023-07-24T14:14:42.133Z,7.05
2023-07-24T14:17:13.076Z,7.45
2023-07-24T14:19:44.945Z,7.28
2023-07-24T14:22:13.411Z,6.53
2023-07-24T14:24:41.665Z,6.90
2023-07-24T14:27:09.861Z,7.68
2023-07-24T14:29:38.206Z,6.88
2023-07-24T14:32:10.067Z,6.47
2023-07-24T14:34:42.829Z,10.85
2023-07-24T14:39:40.326Z,7.10
2023-07-24T14:42:08.620Z,6.97
2023-07-24T14:44:36.838Z,7.32
2023-07-24T14:47:05.122Z,6.53
2023-07-24T14:49:34.577Z,6.65
2023-07-24T14:52:02.880Z,6.72
2023-07-24T14:54:31.945Z,6.40
2023-07-24T14:57:07.614Z,6.78
2023-07-24T14:59:43.141Z,7.43
2023-07-24T15:02:11.410Z,7.45
2023-07-24T15:04:41.263Z,7.53
2023-07-24T15:07:09.807Z,7.35
2023-07-24T15:09:37.965Z,6.05
2023-07-24T15:12:06.778Z,5.97
2023-07-24T15:14:35.622Z,6.22
2023-07-24T15:17:03.863Z,5.82
2023-07-24T15:19:32.088Z,6.05
2023-07-24T15:22:01.894Z,4.82
2023-07-24T15:24:30.305Z,5.93
2023-07-24T15:26:58.719Z,6.10
2023-07-24T15:29:27.256Z,6.28
2023-07-24T15:31:55.682Z,7.30
2023-07-24T15:34:24.125Z,5.80
2023-07-24T15:36:52.220Z,6.63
2023-07-24T15:39:21.956Z,4.50
2023-07-24T15:41:50.399Z,6.35
2023-07-24T15:44:18.690Z,7.10
2023-07-24T15:46:48.195Z,7.72
2023-07-24T15:49:17.120Z,7.28
2023-07-24T15:51:45.893Z,7.00
2023-07-24T15:54:14.202Z,5.70
2023-07-24T15:56:43.734Z,6.00
2023-07-24T15:59:12.012Z,9.10
2023-07-24T16:01:40.319Z,8.70
2023-07-24T16:04:08.609Z,6.10
2023-07-24T16:06:37.171Z,8.55
2023-07-24T16:09:05.994Z,6.63
2023-07-24T16:11:34.688Z,7.82
2023-07-24T16:14:05.719Z,5.72
2023-07-24T16:16:34.184Z,6.28
2023-07-24T16:19:17.087Z,6.25
2023-07-24T16:21:47.258Z,6.13
2023-07-24T16:24:18.694Z,7.82
2023-07-24T16:26:47.636Z,9.15
2023-07-24T16:29:18.240Z,8.05
2023-07-24T16:31:46.602Z,9.20
2023-07-24T16:34:15.455Z,15.35
2023-07-24T16:36:43.897Z,8.63
2023-07-24T16:39:12.274Z,10.10
2023-07-24T16:41:40.565Z,8.52
2023-07-24T16:44:15.167Z,9.80
2023-07-24T16:46:45.282Z,7.85
2023-07-24T16:49:13.791Z,7.57
2023-07-24T16:51:42.039Z,14.75
2023-07-24T16:54:10.325Z,10.95
2023-07-24T16:56:38.551Z,11.90
2023-07-24T16:59:06.666Z,9.82
2023-07-24T17:01:36.181Z,9.13
2023-07-24T17:04:06.489Z,9.32
2023-07-24T17:06:36.545Z,12.77
2023-07-24T17:09:05.011Z,7.05
2023-07-24T17:11:33.584Z,6.82
2023-07-24T17:14:02.068Z,5.95
2023-07-24T17:16:31.120Z,8.93
2023-07-24T17:18:59.359Z,6.25
2023-07-24T17:21:29.227Z,9.05
2023-07-24T17:23:57.862Z,9.15
2023-07-24T17:26:26.939Z,7.70
2023-07-24T17:28:55.016Z,7.78
2023-07-24T17:31:23.380Z,7.38
2023-07-24T17:33:51.745Z,6.30
2023-07-24T17:36:20.157Z,7.25
2023-07-24T17:38:49.852Z,14.20
2023-07-24T17:41:18.052Z,9.38
2023-07-24T17:43:46.561Z,9.27
2023-07-24T17:46:17.642Z,5.45
2023-07-24T17:48:46.379Z,6.15
2023-07-24T17:51:14.498Z,5.90
2023-07-24T17:53:42.665Z,6.03
2023-07-24T17:56:13.710Z,5.80
2023-07-24T17:58:41.792Z,6.80
2023-07-24T18:01:11.353Z,5.18
2023-07-24T18:03:39.811Z,6.40
2023-07-24T18:06:08.100Z,4.57
2023-07-24T18:08:36.371Z,4.85
2023-07-24T18:11:04.947Z,5.97
2023-07-24T18:13:34.748Z,5.57
2023-07-24T18:16:03.117Z,7.05
2023-07-24T18:18:31.741Z,4.10
2023-07-24T18:21:08.293Z,4.47
2023-07-24T18:23:37.608Z,4.85
2023-07-24T18:26:05.803Z,5.28
2023-07-24T18:28:35.867Z,4.28
2023-07-24T18:31:04.086Z,4.15
2023-07-24T18:33:32.432Z,3.90
2023-07-24T18:36:00.563Z,7.85
2023-07-24T18:38:28.638Z,3.75
2023-07-24T18:40:56.876Z,4.43
2023-07-24T18:43:25.108Z,4.68
2023-07-24T18:45:56.990Z,6.80
2023-07-24T18:48:27.294Z,5.82
2023-07-24T18:50:55.526Z,4.40
2023-07-24T18:53:23.755Z,4.40
2023-07-24T18:55:53.781Z,4.07
2023-07-24T18:58:22.089Z,3.72
2023-07-24T19:00:50.653Z,5.55
2023-07-24T19:03:20.231Z,4.93
2023-07-24T19:05:49.721Z,7.55
2023-07-24T19:08:18.115Z,7.05
2023-07-24T19:10:46.298Z,4.70
2023-07-24T19:13:14.393Z,6.20
2023-07-24T19:15:42.892Z,8.98
2023-07-24T19:18:11.088Z,7.05
2023-07-24T19:20:40.548Z,4.70
2023-07-24T19:23:08.726Z,4.50
2023-07-24T19:25:37.767Z,4.03
2023-07-24T19:28:06.691Z,3.90
2023-07-24T19:30:35.252Z,4.88
2023-07-24T19:33:03.850Z,5.38
2023-07-24T19:35:32.052Z,5.60
2023-07-24T19:38:02.135Z,4.90
2023-07-24T19:40:30.493Z,4.60
2023-07-24T19:42:59.028Z,4.72
2023-07-24T19:45:29.118Z,7.18
2023-07-24T19:47:58.817Z,6.93
2023-07-24T19:50:27.226Z,6.90
2023-07-24T19:52:56.529Z,7.35
2023-07-24T19:55:26.191Z,6.10
2023-07-24T19:57:54.301Z,7.32
2023-07-24T20:00:24.060Z,6.47
2023-07-24T20:02:54.676Z,4.45
2023-07-24T20:05:23.990Z,6.13
2023-07-24T20:07:52.108Z,7.18
2023-07-24T20:10:20.336Z,4.78
2023-07-24T20:12:49.806Z,4.65
2023-07-24T20:15:18.317Z,5.68
2023-07-24T20:17:46.566Z,5.28
2023-07-24T20:20:15.211Z,5.95
2023-07-24T20:22:43.453Z,5.22
2023-07-24T20:25:11.734Z,5.65
2023-07-24T20:27:39.970Z,4.78
2023-07-24T20:30:10.814Z,5.22
2023-07-24T20:32:39.716Z,5.47
2023-07-24T20:35:09.027Z,6.60
2023-07-24T20:37:37.092Z,4.05
2023-07-24T20:40:05.740Z,3.90
2023-07-24T20:42:34.807Z,5.18
2023-07-24T20:45:02.985Z,5.63
2023-07-24T20:47:32.757Z,2.92
2023-07-24T20:50:01.473Z,3.92
2023-07-24T20:52:31.140Z,4.40
2023-07-24T20:54:59.296Z,4.18
2023-07-24T20:57:27.530Z,3.10
2023-07-24T20:59:56.192Z,5.28
2023-07-24T21:02:24.405Z,4.03
2023-07-24T21:04:56.382Z,3.63
2023-07-24T21:07:24.562Z,3.13
2023-07-24T21:09:52.660Z,4.60
2023-07-24T21:12:20.861Z,3.95
2023-07-24T21:14:49.515Z,3.85
2023-07-24T21:17:17.971Z,3.95
2023-07-24T21:19:46.114Z,3.78
2023-07-24T21:22:15.828Z,3.85
2023-07-24T21:24:44.178Z,5.95
2023-07-24T21:27:13.395Z,4.20
2023-07-24T21:29:41.912Z,3.47
2023-07-24T21:32:10.270Z,4.43
2023-07-24T21:34:38.579Z,3.45
2023-07-24T21:37:07.072Z,3.72
2023-07-24T21:39:36.699Z,4.50
2023-07-24T21:42:05.407Z,5.35
2023-07-24T21:44:33.585Z,3.50
2023-07-24T21:47:01.806Z,3.95
2023-07-24T21:49:32.388Z,6.80
2023-07-24T21:52:01.510Z,2.70
2023-07-24T21:54:29.760Z,5.55
2023-07-24T21:56:59.658Z,7.70
2023-07-24T21:59:27.832Z,3.90
2023-07-24T22:01:55.910Z,4.80
2023-07-24T22:04:24.283Z,4.55
2023-07-24T22:06:52.504Z,2.50
2023-07-24T22:09:20.648Z,3.17
2023-07-24T22:11:48.946Z,2.83
2023-07-24T22:14:18.423Z,3.53
2023-07-24T22:16:46.525Z,2.55
2023-07-24T22:19:16.148Z,2.78
2023-07-24T22:21:44.691Z,4.45
2023-07-24T22:24:13.090Z,3.42
2023-07-24T22:26:41.432Z,4.32
2023-07-24T22:29:09.618Z,3.67
2023-07-24T22:31:39.188Z,3.60
2023-07-24T22:34:07.405Z,3.42
2023-07-24T22:36:35.557Z,3.45
2023-07-24T22:39:06.541Z,5.22
2023-07-24T22:41:34.810Z,4.57
2023-07-24T22:44:02.833Z,3.90
2023-07-24T22:46:31.101Z,4.80
2023-07-24T22:49:00.801Z,3.80
2023-07-24T22:51:29.178Z,3.10
2023-07-24T22:53:57.752Z,6.68
2023-07-24T22:56:25.860Z,3.45
2023-07-24T22:59:21.737Z,5.13
2023-07-24T23:01:51.904Z,5.25
2023-07-24T23:04:24.083Z,4.25
2023-07-24T23:06:53.014Z,5.90
2023-07-24T23:09:21.163Z,5.90
2023-07-24T23:11:49.328Z,4.57
2023-07-24T23:14:17.577Z,5.10
2023-07-24T23:16:45.841Z,4.80
2023-07-24T23:19:14.081Z,6.32
2023-07-24T23:21:43.623Z,2.95
2023-07-24T23:24:11.817Z,4.45
2023-07-24T23:26:39.893Z,3.53
2023-07-24T23:29:08.022Z,4.05
2023-07-24T23:31:36.190Z,5.55
2023-07-24T23:34:04.316Z,4.13
2023-07-24T23:36:32.612Z,4.03
2023-07-24T23:39:02.156Z,3.88
2023-07-24T23:41:30.607Z,3.80
2023-07-24T23:43:59.158Z,3.67
2023-07-24T23:46:27.182Z,3.25
2023-07-24T23:48:55.229Z,7.30
2023-07-24T23:51:24.902Z,5.57
2023-07-24T23:53:52.987Z,3.95
2023-07-24T23:56:22.448Z,5.00
2023-07-24T23:58:50.463Z,4.88
